Time;durP1;ratioP1;P1;durP2;ratioP2;P2;SDS_P1;SDS_P2;PMS_P1;PMS_P2;Temp;Humidity;BMP_temperature;BMP_pressure;BME280_temperature;BME280_humidity;BME280_pressure;Samples;Min_cycle;Max_cycle;Signal;HPM_P1;HPM_P2
2022/06/28 00:02:00;;;;;;;11.45;4.88;;;;;;;;;;5075387;28;20055;-41
2022/06/28 00:04:26;;;;;;;10.65;3.95;;;;;;;;;;5074852;28;20021;-43
2022/06/28 00:06:52;;;;;;;8.77;3.83;;;;;;;;;;5074317;28;20029;-47
2022/06/28 00:09:17;;;;;;;8.43;4.15;;;;;;;;;;5074254;28;20381;-45
2022/06/28 00:11:43;;;;;;;7.68;4.05;;;;;;;;;;5074930;28;20032;-44
2022/06/28 00:16:55;;;;;;;6.68;3.70;;;;;;;;;;5075323;28;20043;-45
2022/06/28 00:19:20;;;;;;;8.65;4.20;;;;;;;;;;5074778;28;20024;-45
2022/06/28 00:21:47;;;;;;;9.38;4.00;;;;;;;;;;5074746;28;20118;-45
2022/06/28 00:24:13;;;;;;;6.50;3.90;;;;;;;;;;5074987;28;20388;-43
2022/06/28 00:26:39;;;;;;;5.20;4.65;;;;;;;;;;5074691;28;20131;-43
2022/06/28 00:29:04;;;;;;;8.77;5.60;;;;;;;;;;5074976;28;20357;-43
2022/06/28 00:31:29;;;;;;;8.32;4.78;;;;;;;;;;5074598;28;20012;-45
2022/06/28 00:33:55;;;;;;;5.93;4.40;;;;;;;;;;5074717;28;20021;-45
2022/06/28 00:36:20;;;;;;;9.10;5.00;;;;;;;;;;5074710;28;20439;-43
2022/06/28 00:38:46;;;;;;;8.20;4.53;;;;;;;;;;5074437;28;20114;-43
2022/06/28 00:41:11;;;;;;;8.48;4.60;;;;;;;;;;5074661;28;20070;-43
2022/06/28 00:43:37;;;;;;;7.05;4.72;;;;;;;;;;5074346;28;20375;-43
2022/06/28 00:46:02;;;;;;;9.32;4.60;;;;;;;;;;5074557;28;20060;-42
2022/06/28 00:48:29;;;;;;;6.47;4.22;;;;;;;;;;5074228;28;20488;-45
2022/06/28 00:50:55;;;;;;;8.20;5.13;;;;;;;;;;5074192;28;20483;-39
2022/06/28 00:53:20;;;;;;;4.97;4.55;;;;;;;;;;5074127;28;20059;-39
2022/06/28 00:55:47;;;;;;;7.57;4.47;;;;;;;;;;5074069;28;20154;-40
2022/06/28 00:58:15;;;;;;;6.10;4.50;;;;;;;;;;5073999;28;20025;-39
2022/06/28 01:00:43;;;;;;;8.30;4.78;;;;;;;;;;5073994;28;20028;-39
2022/06/28 01:03:15;;;;;;;9.40;4.70;;;;;;;;;;5073438;28;20024;-39
2022/06/28 01:05:41;;;;;;;8.82;4.60;;;;;;;;;;5074220;28;20486;-40
2022/06/28 01:08:07;;;;;;;6.65;4.25;;;;;;;;;;5073872;28;20406;-38
2022/06/28 01:10:34;;;;;;;5.57;4.30;;;;;;;;;;5073814;28;20028;-39
2022/06/28 01:12:59;;;;;;;7.03;4.65;;;;;;;;;;5074001;28;20109;-39
2022/06/28 01:15:25;;;;;;;7.05;4.72;;;;;;;;;;5073760;28;20032;-39
2022/06/28 01:17:52;;;;;;;5.38;4.38;;;;;;;;;;5073528;28;20027;-39
2022/06/28 01:20:17;;;;;;;9.38;4.85;;;;;;;;;;5073625;28;20079;-39
2022/06/28 01:22:43;;;;;;;5.28;4.75;;;;;;;;;;5073572;28;20020;-39
2022/06/28 01:25:09;;;;;;;8.55;5.13;;;;;;;;;;5073766;28;20025;-39
2022/06/28 01:27:35;;;;;;;7.70;4.68;;;;;;;;;;5073285;28;20045;-39
2022/06/28 01:30:05;;;;;;;5.50;4.70;;;;;;;;;;5073460;28;20453;-40
2022/06/28 01:32:32;;;;;;;7.75;4.82;;;;;;;;;;5073659;28;20025;-39
2022/06/28 01:34:59;;;;;;;6.20;4.47;;;;;;;;;;5073347;28;20104;-39
2022/06/28 01:37:24;;;;;;;5.90;4.70;;;;;;;;;;5073478;28;20036;-38
2022/06/28 01:39:50;;;;;;;8.43;5.88;;;;;;;;;;5073285;28;20028;-39
2022/06/28 01:42:15;;;;;;;8.88;4.85;;;;;;;;;;5073164;28;20357;-40
2022/06/28 01:44:43;;;;;;;7.43;4.60;;;;;;;;;;5073141;28;20500;-39
2022/06/28 01:47:11;;;;;;;5.40;4.90;;;;;;;;;;5073060;28;20074;-39
2022/06/28 01:49:36;;;;;;;5.00;4.53;;;;;;;;;;5073106;28;20096;-38
2022/06/28 01:52:05;;;;;;;8.05;4.97;;;;;;;;;;5073027;28;20103;-46
2022/06/28 01:54:31;;;;;;;5.43;4.85;;;;;;;;;;5072979;28;20488;-44
2022/06/28 01:56:56;;;;;;;6.32;4.40;;;;;;;;;;5073353;28;20078;-45
2022/06/28 01:59:23;;;;;;;5.97;4.60;;;;;;;;;;5072916;28;20366;-43
2022/06/28 02:01:48;;;;;;;6.88;4.70;;;;;;;;;;5073113;28;20388;-45
2022/06/28 02:04:22;;;;;;;8.10;4.60;;;;;;;;;;5073071;28;20022;-45
2022/06/28 02:06:47;;;;;;;8.10;4.80;;;;;;;;;;5073025;28;20024;-42
2022/06/28 02:09:13;;;;;;;8.50;4.78;;;;;;;;;;5072804;28;20423;-44
2022/06/28 02:11:38;;;;;;;5.65;4.68;;;;;;;;;;5072991;28;20357;-46
2022/06/28 02:14:04;;;;;;;11.05;4.85;;;;;;;;;;5072081;28;20403;-46
2022/06/28 02:16:29;;;;;;;12.48;5.20;;;;;;;;;;5072496;28;20079;-45
2022/06/28 02:18:55;;;;;;;12.00;5.10;;;;;;;;;;5073203;28;20028;-47
2022/06/28 02:21:20;;;;;;;16.48;4.90;;;;;;;;;;5072815;28;20025;-39
2022/06/28 02:23:46;;;;;;;6.60;4.25;;;;;;;;;;5072543;28;20082;-40
2022/06/28 02:26:13;;;;;;;9.98;4.75;;;;;;;;;;5072516;28;20068;-40
2022/06/28 02:28:39;;;;;;;8.60;5.00;;;;;;;;;;5072417;28;20076;-40
2022/06/28 02:31:11;;;;;;;6.10;4.88;;;;;;;;;;5072440;28;20031;-39
2022/06/28 02:33:37;;;;;;;6.78;4.90;;;;;;;;;;5072488;28;20028;-40
2022/06/28 02:41:31;;;;;;;10.55;5.30;;;;;;;;;;5072734;28;20486;-40
2022/06/28 02:43:57;;;;;;;6.80;4.80;;;;;;;;;;5072589;28;20107;-40
2022/06/28 02:46:22;;;;;;;6.88;4.40;;;;;;;;;;5072326;28;20102;-40
2022/06/28 02:48:48;;;;;;;6.03;4.90;;;;;;;;;;5072624;28;20354;-39
2022/06/28 02:51:14;;;;;;;6.50;4.63;;;;;;;;;;5072288;28;20025;-47
2022/06/28 02:53:39;;;;;;;7.60;5.05;;;;;;;;;;5072563;28;20524;-44
2022/06/28 02:56:05;;;;;;;5.20;4.80;;;;;;;;;;5072457;28;20027;-43
2022/06/28 02:58:30;;;;;;;7.57;4.88;;;;;;;;;;5072453;28;20464;-42
2022/06/28 03:00:56;;;;;;;9.18;5.20;;;;;;;;;;5072495;28;20376;-44
2022/06/28 03:03:21;;;;;;;6.20;5.22;;;;;;;;;;5072213;28;20113;-44
2022/06/28 03:05:47;;;;;;;14.93;5.30;;;;;;;;;;5072062;28;20051;-47
2022/06/28 03:08:12;;;;;;;9.15;5.53;;;;;;;;;;5072375;28;20034;-39
2022/06/28 03:10:38;;;;;;;8.45;5.53;;;;;;;;;;5072116;28;20028;-40
2022/06/28 03:13:03;;;;;;;12.10;5.22;;;;;;;;;;5072141;28;20418;-39
2022/06/28 03:15:29;;;;;;;7.82;5.55;;;;;;;;;;5072403;28;20217;-44
2022/06/28 03:17:54;;;;;;;8.50;4.80;;;;;;;;;;5071979;28;20076;-39
2022/06/28 03:20:19;;;;;;;7.88;5.07;;;;;;;;;;5071997;28;20025;-39
2022/06/28 03:22:46;;;;;;;8.02;5.03;;;;;;;;;;5072261;28;20025;-39
2022/06/28 03:25:11;;;;;;;9.25;5.30;;;;;;;;;;5071998;28;20434;-40
2022/06/28 03:27:37;;;;;;;15.32;4.90;;;;;;;;;;5075592;28;20071;-39
2022/06/28 03:30:04;;;;;;;11.18;5.85;;;;;;;;;;5075895;28;20028;-40
2022/06/28 03:32:29;;;;;;;7.65;5.00;;;;;;;;;;5075988;28;20416;-40
2022/06/28 03:34:55;;;;;;;6.88;5.10;;;;;;;;;;5075926;28;20031;-39
2022/06/28 03:37:21;;;;;;;9.35;5.35;;;;;;;;;;5074271;28;20119;-39
2022/06/28 03:39:46;;;;;;;6.80;5.25;;;;;;;;;;5075599;28;20042;-45
2022/06/28 03:42:12;;;;;;;6.72;5.43;;;;;;;;;;5075794;28;20024;-42
2022/06/28 03:44:37;;;;;;;7.90;4.72;;;;;;;;;;5075807;28;20024;-39
2022/06/28 03:47:03;;;;;;;9.45;4.70;;;;;;;;;;5075426;28;20029;-40
2022/06/28 03:49:29;;;;;;;4.88;4.45;;;;;;;;;;5075629;28;20017;-39
2022/06/28 03:51:54;;;;;;;5.75;4.95;;;;;;;;;;5075582;28;20078;-43
2022/06/28 03:54:20;;;;;;;5.18;4.68;;;;;;;;;;5075459;28;20034;-41
2022/06/28 03:56:45;;;;;;;4.60;4.10;;;;;;;;;;5075444;28;20033;-40
2022/06/28 03:59:11;;;;;;;6.82;4.38;;;;;;;;;;5075504;28;20034;-39
2022/06/28 04:01:36;;;;;;;5.95;4.32;;;;;;;;;;5075523;28;20472;-46
2022/06/28 04:04:01;;;;;;;5.03;4.03;;;;;;;;;;5074447;28;20039;-44
2022/06/28 04:06:27;;;;;;;6.80;3.70;;;;;;;;;;5074934;28;20036;-42
2022/06/28 04:08:52;;;;;;;6.80;4.03;;;;;;;;;;5075076;28;20020;-41
2022/06/28 04:11:18;;;;;;;10.70;4.50;;;;;;;;;;5074993;28;20030;-40
2022/06/28 04:13:49;;;;;;;4.75;4.30;;;;;;;;;;5074907;28;20021;-42
2022/06/28 04:16:16;;;;;;;10.88;4.28;;;;;;;;;;5074864;28;20024;-41
2022/06/28 04:18:43;;;;;;;4.57;4.05;;;;;;;;;;5074944;28;20086;-39
2022/06/28 04:21:10;;;;;;;8.48;4.70;;;;;;;;;;5074794;28;20031;-40
2022/06/28 04:23:36;;;;;;;6.40;4.32;;;;;;;;;;5074734;28;20496;-41
2022/06/28 04:26:02;;;;;;;6.43;3.90;;;;;;;;;;5074827;28;20028;-39
2022/06/28 04:28:27;;;;;;;4.50;4.10;;;;;;;;;;5074521;28;20044;-39
2022/06/28 04:30:53;;;;;;;10.18;4.53;;;;;;;;;;5074582;28;20435;-41
2022/06/28 04:33:18;;;;;;;17.52;6.20;;;;;;;;;;5074943;28;20028;-39
2022/06/28 04:35:45;;;;;;;14.00;8.50;;;;;;;;;;5074576;28;20514;-40
2022/06/28 04:38:10;;;;;;;10.13;5.80;;;;;;;;;;5073919;28;20032;-39
2022/06/28 04:40:36;;;;;;;8.32;5.53;;;;;;;;;;5074411;28;20388;-41
2022/06/28 04:43:02;;;;;;;13.15;6.40;;;;;;;;;;5074454;28;20074;-39
2022/06/28 04:45:28;;;;;;;6.35;4.35;;;;;;;;;;5074311;28;20430;-39
2022/06/28 04:47:53;;;;;;;4.32;3.88;;;;;;;;;;5074325;28;20033;-40
2022/06/28 04:50:19;;;;;;;14.60;5.93;;;;;;;;;;5074265;28;20479;-40
2022/06/28 04:52:44;;;;;;;13.10;5.30;;;;;;;;;;5074172;28;20023;-40
2022/06/28 04:55:10;;;;;;;13.52;6.68;;;;;;;;;;5074188;28;20474;-42
2022/06/28 04:57:35;;;;;;;8.30;5.65;;;;;;;;;;5074341;28;20032;-39
2022/06/28 05:00:01;;;;;;;9.88;6.55;;;;;;;;;;5074314;28;20025;-39
2022/06/28 05:02:26;;;;;;;7.10;4.15;;;;;;;;;;5074309;28;20098;-42
2022/06/28 05:04:52;;;;;;;6.35;3.95;;;;;;;;;;5073920;28;20047;-40
2022/06/28 05:07:17;;;;;;;11.65;3.72;;;;;;;;;;5073994;28;20024;-43
2022/06/28 05:09:43;;;;;;;10.68;3.67;;;;;;;;;;5074132;28;20044;-40
2022/06/28 05:12:08;;;;;;;15.15;3.58;;;;;;;;;;5073807;28;20449;-41
2022/06/28 05:14:34;;;;;;;14.35;3.33;;;;;;;;;;5074052;28;20082;-44
2022/06/28 05:17:01;;;;;;;9.15;3.58;;;;;;;;;;5073920;28;20033;-45
2022/06/28 05:19:26;;;;;;;9.65;3.72;;;;;;;;;;5073864;28;20024;-41
2022/06/28 05:21:52;;;;;;;10.70;3.90;;;;;;;;;;5074085;28;20120;-41
2022/06/28 05:24:17;;;;;;;47.85;5.65;;;;;;;;;;5073725;28;20486;-42
2022/06/28 05:26:43;;;;;;;10.60;4.15;;;;;;;;;;5073343;28;20400;-39
2022/06/28 05:29:08;;;;;;;14.23;4.32;;;;;;;;;;5073763;28;20056;-40
2022/06/28 05:31:35;;;;;;;9.73;4.35;;;;;;;;;;5073521;28;20071;-45
2022/06/28 05:34:01;;;;;;;11.77;4.43;;;;;;;;;;5073381;28;20032;-42
2022/06/28 05:36:26;;;;;;;9.93;4.03;;;;;;;;;;5071558;28;20039;-43
2022/06/28 05:38:52;;;;;;;8.02;4.00;;;;;;;;;;5072786;28;20048;-44
2022/06/28 05:41:18;;;;;;;6.38;3.75;;;;;;;;;;5073424;28;20048;-45
2022/06/28 05:43:43;;;;;;;8.13;4.63;;;;;;;;;;5072611;28;20491;-40
2022/06/28 05:46:08;;;;;;;8.88;4.32;;;;;;;;;;5073387;28;20029;-46
2022/06/28 05:48:34;;;;;;;13.05;3.20;;;;;;;;;;5072932;28;20471;-42
2022/06/28 05:50:59;;;;;;;6.97;2.35;;;;;;;;;;5071452;28;20111;-39
2022/06/28 05:53:25;;;;;;;16.00;3.28;;;;;;;;;;5072975;28;20104;-38
2022/06/28 05:55:50;;;;;;;15.88;3.90;;;;;;;;;;5072778;28;20379;-39
2022/06/28 05:58:15;;;;;;;8.88;3.75;;;;;;;;;;5072646;28;20103;-42
2022/06/28 06:00:41;;;;;;;8.90;2.80;;;;;;;;;;5073193;28;20075;-47
2022/06/28 06:03:06;;;;;;;4.60;3.00;;;;;;;;;;5072758;28;20040;-44
2022/06/28 06:05:32;;;;;;;16.50;3.60;;;;;;;;;;5071636;28;20028;-40
2022/06/28 06:07:58;;;;;;;20.67;3.28;;;;;;;;;;5072725;28;20070;-42
2022/06/28 06:10:23;;;;;;;8.15;4.10;;;;;;;;;;5072793;28;20024;-41
2022/06/28 06:12:49;;;;;;;12.93;4.30;;;;;;;;;;5072821;28;20456;-50
2022/06/28 06:15:14;;;;;;;8.38;4.53;;;;;;;;;;5073191;28;20521;-42
2022/06/28 06:17:39;;;;;;;12.63;5.18;;;;;;;;;;5072644;28;20379;-47
2022/06/28 06:20:06;;;;;;;12.57;4.20;;;;;;;;;;5072774;28;20086;-39
2022/06/28 06:22:32;;;;;;;8.73;3.97;;;;;;;;;;5072865;28;20012;-41
2022/06/28 06:24:57;;;;;;;4.40;3.40;;;;;;;;;;5072805;28;20365;-42
2022/06/28 06:27:23;;;;;;;5.45;3.63;;;;;;;;;;5072369;28;20511;-41
2022/06/28 06:29:49;;;;;;;6.45;4.18;;;;;;;;;;5072737;28;20049;-51
2022/06/28 06:32:15;;;;;;;7.95;4.82;;;;;;;;;;5072816;28;20032;-42
2022/06/28 06:34:40;;;;;;;16.25;4.70;;;;;;;;;;5072453;28;20024;-51
2022/06/28 06:37:05;;;;;;;12.38;8.02;;;;;;;;;;5072386;28;20111;-44
2022/06/28 06:39:31;;;;;;;9.63;4.88;;;;;;;;;;5072520;28;20028;-40
2022/06/28 06:41:57;;;;;;;12.45;4.30;;;;;;;;;;5072396;28;20032;-51
2022/06/28 06:44:22;;;;;;;7.80;4.90;;;;;;;;;;5072323;28;20078;-44
2022/06/28 06:46:48;;;;;;;16.25;5.63;;;;;;;;;;5072586;28;20033;-45
2022/06/28 06:49:17;;;;;;;9.25;6.00;;;;;;;;;;5072607;28;20427;-39
2022/06/28 06:51:48;;;;;;;13.27;7.07;;;;;;;;;;5072296;28;20465;-39
2022/06/28 06:54:14;;;;;;;9.00;5.68;;;;;;;;;;5072685;28;20036;-42
2022/06/28 06:56:41;;;;;;;9.10;5.55;;;;;;;;;;5072178;28;20510;-39
2022/06/28 06:59:07;;;;;;;15.45;6.78;;;;;;;;;;5072515;28;20101;-54
2022/06/28 07:01:34;;;;;;;7.68;4.40;;;;;;;;;;5073410;28;20048;-48
2022/06/28 07:04:01;;;;;;;7.95;3.72;;;;;;;;;;5076560;28;20029;-40
2022/06/28 07:06:27;;;;;;;9.48;3.83;;;;;;;;;;5076430;28;20029;-39
2022/06/28 07:08:52;;;;;;;4.80;3.17;;;;;;;;;;5076549;28;20024;-39
2022/06/28 07:11:18;;;;;;;6.78;3.33;;;;;;;;;;5071571;28;20028;-41
2022/06/28 07:13:43;;;;;;;3.20;3.00;;;;;;;;;;5075308;28;20112;-39
2022/06/28 07:16:09;;;;;;;6.57;3.65;;;;;;;;;;5075923;28;20024;-39
2022/06/28 07:18:34;;;;;;;4.55;3.55;;;;;;;;;;5075803;28;20021;-39
2022/06/28 07:21:00;;;;;;;5.35;2.72;;;;;;;;;;5074283;28;20492;-44
2022/06/28 07:23:26;;;;;;;5.93;3.63;;;;;;;;;;5074642;28;20078;-46
2022/06/28 07:25:52;;;;;;;28.20;6.10;;;;;;;;;;5074489;28;20383;-45
2022/06/28 07:28:17;;;;;;;9.98;5.20;;;;;;;;;;5074109;28;20526;-38
2022/06/28 07:30:43;;;;;;;8.57;3.63;;;;;;;;;;5074078;28;20032;-40
2022/06/28 07:33:09;;;;;;;12.20;4.25;;;;;;;;;;5074081;28;20111;-44
2022/06/28 07:35:35;;;;;;;10.48;3.30;;;;;;;;;;5074196;28;20036;-47
2022/06/28 07:38:01;;;;;;;14.80;7.38;;;;;;;;;;5074371;28;20044;-38
2022/06/28 07:40:26;;;;;;;6.03;2.63;;;;;;;;;;5074184;28;20039;-46
2022/06/28 07:42:52;;;;;;;2.97;2.10;;;;;;;;;;5073978;28;20021;-45
2022/06/28 07:45:17;;;;;;;4.90;3.22;;;;;;;;;;5073934;28;20077;-46
2022/06/28 07:47:47;;;;;;;4.97;3.35;;;;;;;;;;5073860;28;20089;-55
2022/06/28 07:53:02;;;;;;;6.73;2.50;;;;;;;;;;5073859;28;20066;-45
2022/06/28 07:55:28;;;;;;;6.75;2.78;;;;;;;;;;5073593;28;20031;-39
2022/06/28 07:57:54;;;;;;;5.28;2.67;;;;;;;;;;5073498;28;20032;-44
2022/06/28 08:00:21;;;;;;;6.65;3.45;;;;;;;;;;5073789;28;20035;-40
2022/06/28 08:02:49;;;;;;;6.65;2.85;;;;;;;;;;5073831;28;20384;-46
2022/06/28 08:05:15;;;;;;;3.73;2.70;;;;;;;;;;5073571;28;20025;-39
2022/06/28 08:07:41;;;;;;;3.22;2.50;;;;;;;;;;5073535;28;20052;-42
2022/06/28 08:10:08;;;;;;;3.28;1.92;;;;;;;;;;5073335;28;20035;-39
2022/06/28 08:12:34;;;;;;;5.30;2.65;;;;;;;;;;5072268;28;20024;-39
2022/06/28 08:15:00;;;;;;;7.07;2.85;;;;;;;;;;5073333;28;20483;-49
2022/06/28 08:17:25;;;;;;;7.25;3.00;;;;;;;;;;5073480;28;20046;-46
2022/06/28 08:19:51;;;;;;;8.75;2.92;;;;;;;;;;5072895;28;20029;-39
2022/06/28 08:22:16;;;;;;;5.57;3.00;;;;;;;;;;5073033;28;20453;-42
2022/06/28 08:24:42;;;;;;;9.25;3.00;;;;;;;;;;5073141;28;20127;-44
2022/06/28 08:27:08;;;;;;;5.72;2.58;;;;;;;;;;5073049;28;20056;-44
2022/06/28 08:29:34;;;;;;;5.38;2.92;;;;;;;;;;5072970;28;20100;-40
2022/06/28 08:32:00;;;;;;;5.63;2.70;;;;;;;;;;5072900;28;20692;-42
2022/06/28 08:34:26;;;;;;;4.63;2.72;;;;;;;;;;5072473;28;20029;-42
2022/06/28 08:36:52;;;;;;;9.43;3.13;;;;;;;;;;5072783;28;20439;-49
2022/06/28 08:39:17;;;;;;;12.45;4.05;;;;;;;;;;5072996;28;20032;-48
2022/06/28 08:41:44;;;;;;;4.35;2.90;;;;;;;;;;5072868;28;20032;-45
2022/06/28 08:44:11;;;;;;;8.60;3.35;;;;;;;;;;5072658;28;20052;-50
2022/06/28 08:46:37;;;;;;;4.50;2.42;;;;;;;;;;5072833;28;20024;-39
2022/06/28 08:49:11;;;;;;;5.25;3.05;;;;;;;;;;5072971;28;20024;-43
2022/06/28 08:51:38;;;;;;;8.65;3.00;;;;;;;;;;5072927;28;20085;-54
2022/06/28 08:54:04;;;;;;;9.82;2.90;;;;;;;;;;5072567;28;20182;-47
2022/06/28 08:56:30;;;;;;;5.10;2.53;;;;;;;;;;5072588;28;20054;-46
2022/06/28 08:58:59;;;;;;;9.23;2.95;;;;;;;;;;5072553;28;20028;-56
2022/06/28 09:01:25;;;;;;;4.53;2.42;;;;;;;;;;5072607;28;20391;-49
2022/06/28 09:03:53;;;;;;;6.63;2.50;;;;;;;;;;5071085;28;20710;-40
2022/06/28 09:06:19;;;;;;;3.22;2.30;;;;;;;;;;5072293;28;20032;-48
2022/06/28 09:08:45;;;;;;;3.67;2.42;;;;;;;;;;5072416;28;20025;-42
2022/06/28 09:11:11;;;;;;;3.65;2.72;;;;;;;;;;5072095;28;20028;-43
2022/06/28 09:13:37;;;;;;;7.78;2.50;;;;;;;;;;5072499;28;20028;-40
2022/06/28 09:16:04;;;;;;;6.93;4.03;;;;;;;;;;5072417;28;20177;-45
2022/06/28 09:18:36;;;;;;;9.20;3.42;;;;;;;;;;5071861;28;20035;-54
2022/06/28 09:21:05;;;;;;;4.15;2.25;;;;;;;;;;5071917;28;20044;-51
2022/06/28 09:23:34;;;;;;;4.75;2.38;;;;;;;;;;5071559;28;20518;-53
2022/06/28 09:26:20;;;;;;;3.10;2.35;;;;;;;;;;5071792;28;20052;-52
2022/06/28 09:28:48;;;;;;;2.53;2.33;;;;;;;;;;5071856;28;20075;-39
2022/06/28 09:31:16;;;;;;;7.88;3.60;;;;;;;;;;5071823;28;20502;-41
2022/06/28 09:33:49;;;;;;;3.05;2.50;;;;;;;;;;5071511;28;20032;-39
2022/06/28 09:36:18;;;;;;;8.52;2.50;;;;;;;;;;5071500;28;20036;-53
2022/06/28 09:38:44;;;;;;;4.88;2.60;;;;;;;;;;5071648;28;20033;-42
2022/06/28 09:41:29;;;;;;;4.95;2.35;;;;;;;;;;5070997;28;20032;-48
2022/06/28 09:44:00;;;;;;;5.93;2.67;;;;;;;;;;5071566;28;20380;-48
2022/06/28 09:46:27;;;;;;;9.93;3.83;;;;;;;;;;5071311;28;20028;-49
2022/06/28 09:48:58;;;;;;;5.53;2.67;;;;;;;;;;5071775;28;20028;-51
2022/06/28 09:51:24;;;;;;;5.25;2.38;;;;;;;;;;5071264;28;20028;-41
2022/06/28 09:53:55;;;;;;;4.30;2.65;;;;;;;;;;5071249;28;20032;-51
2022/06/28 09:56:25;;;;;;;5.45;2.80;;;;;;;;;;5071183;28;20383;-50
2022/06/28 09:58:51;;;;;;;3.58;2.63;;;;;;;;;;5053899;28;20460;-39
2022/06/28 10:01:18;;;;;;;4.18;2.38;;;;;;;;;;5071229;28;20035;-45
2022/06/28 10:03:43;;;;;;;10.80;3.47;;;;;;;;;;5071491;28;20059;-44
2022/06/28 10:06:09;;;;;;;2.20;1.95;;;;;;;;;;5071193;28;20632;-44
2022/06/28 10:08:35;;;;;;;3.45;2.63;;;;;;;;;;5071397;28;20078;-39
2022/06/28 10:11:01;;;;;;;3.38;2.13;;;;;;;;;;5071179;28;20365;-41
2022/06/28 10:16:22;;;;;;;4.72;2.90;;;;;;;;;;5071148;28;20031;-43
2022/06/28 10:18:48;;;;;;;5.53;2.67;;;;;;;;;;5071056;28;20036;-39
2022/06/28 10:21:14;;;;;;;5.85;2.85;;;;;;;;;;5071334;28;20392;-46
2022/06/28 10:23:45;;;;;;;6.75;2.70;;;;;;;;;;5070861;28;20023;-45
2022/06/28 10:26:16;;;;;;;4.60;2.65;;;;;;;;;;5071017;28;20024;-51
2022/06/28 10:28:41;;;;;;;7.97;2.80;;;;;;;;;;5070745;28;20094;-56
2022/06/28 10:31:25;;;;;;;5.77;2.97;;;;;;;;;;5071236;28;20041;-38
2022/06/28 10:33:56;;;;;;;5.18;2.08;;;;;;;;;;5071179;28;20932;-50
2022/06/28 10:36:25;;;;;;;4.90;2.20;;;;;;;;;;5069921;28;20056;-50
2022/06/28 10:39:06;;;;;;;6.57;1.85;;;;;;;;;;5070806;28;20490;-45
2022/06/28 10:41:47;;;;;;;10.18;2.05;;;;;;;;;;5071030;28;20033;-51
2022/06/28 10:44:22;;;;;;;4.70;2.03;;;;;;;;;;5070808;28;20107;-52
2022/06/28 10:47:00;;;;;;;5.38;2.28;;;;;;;;;;5070811;28;20511;-44
2022/06/28 10:49:26;;;;;;;6.40;1.95;;;;;;;;;;5071084;28;20028;-56
2022/06/28 10:52:14;;;;;;;8.40;2.10;;;;;;;;;;5070690;28;20089;-39
2022/06/28 10:54:52;;;;;;;7.80;1.80;;;;;;;;;;5070754;28;20032;-56
2022/06/28 10:57:40;;;;;;;4.40;1.65;;;;;;;;;;5070663;28;20040;-53
2022/06/28 11:00:21;;;;;;;6.75;1.80;;;;;;;;;;5070650;28;20033;-57
2022/06/28 11:02:49;;;;;;;4.10;1.48;;;;;;;;;;5070584;28;20112;-40
2022/06/28 11:05:16;;;;;;;4.68;1.83;;;;;;;;;;5070528;28;20024;-51
2022/06/28 11:07:55;;;;;;;5.18;2.15;;;;;;;;;;5070449;28;20044;-46
2022/06/28 11:10:20;;;;;;;6.35;1.80;;;;;;;;;;5070404;28;20024;-43
2022/06/28 11:12:46;;;;;;;6.65;1.92;;;;;;;;;;5070378;28;20085;-47
2022/06/28 11:15:35;;;;;;;4.00;1.50;;;;;;;;;;5070102;28;20499;-49
2022/06/28 11:18:00;;;;;;;;;;;;;;;;;;5069360;28;20037;-44
2022/06/28 11:20:27;;;;;;;6.50;2.10;;;;;;;;;;5070371;28;19916;-42
2022/06/28 11:22:53;;;;;;;7.35;2.33;;;;;;;;;;5069609;28;20032;-46
2022/06/28 11:25:21;;;;;;;4.10;1.42;;;;;;;;;;5070078;28;20031;-45
2022/06/28 11:27:55;;;;;;;5.45;2.28;;;;;;;;;;5069628;28;20750;-42
2022/06/28 11:30:23;;;;;;;9.43;2.55;;;;;;;;;;5069308;28;20036;-50
2022/06/28 11:32:50;;;;;;;6.05;2.85;;;;;;;;;;5069275;28;20033;-48
2022/06/28 11:35:18;;;;;;;13.00;3.90;;;;;;;;;;5070451;28;20028;-52
2022/06/28 11:37:59;;;;;;;5.60;1.80;;;;;;;;;;5070253;28;20492;-39
2022/06/28 11:40:28;;;;;;;4.88;1.85;;;;;;;;;;5069167;28;20025;-40
2022/06/28 11:43:05;;;;;;;6.15;1.85;;;;;;;;;;5069574;28;20017;-44
2022/06/28 11:45:32;;;;;;;3.90;1.45;;;;;;;;;;5069907;28;20079;-39
2022/06/28 11:48:22;;;;;;;4.50;1.70;;;;;;;;;;5072133;28;20024;-46
2022/06/28 11:50:53;;;;;;;8.18;1.63;;;;;;;;;;5053501;28;20585;-44
2022/06/28 11:53:19;;;;;;;4.30;1.55;;;;;;;;;;5053909;28;20056;-40
2022/06/28 11:55:50;;;;;;;9.68;2.28;;;;;;;;;;5053621;28;20032;-49
2022/06/28 11:58:23;;;;;;;6.38;2.17;;;;;;;;;;5053414;28;20044;-46
2022/06/28 12:01:17;;;;;;;12.93;3.05;;;;;;;;;;5053842;28;20039;-39
2022/06/28 12:03:42;;;;;;;4.65;1.73;;;;;;;;;;5053459;28;20416;-40
2022/06/28 12:06:12;;;;;;;9.87;1.90;;;;;;;;;;5053390;28;20086;-46
2022/06/28 12:08:53;;;;;;;4.30;1.30;;;;;;;;;;5053664;28;20269;-39
2022/06/28 12:11:33;;;;;;;6.43;1.30;;;;;;;;;;5053775;28;20037;-42
2022/06/28 12:14:03;;;;;;;8.88;2.00;;;;;;;;;;5053368;28;20021;-48
2022/06/28 12:16:32;;;;;;;10.43;3.90;;;;;;;;;;5064205;28;20514;-40
2022/06/28 12:18:59;;;;;;;4.15;1.50;;;;;;;;;;5072721;28;20035;-39
2022/06/28 12:21:26;;;;;;;7.60;2.10;;;;;;;;;;5072925;28;20056;-44
2022/06/28 12:23:56;;;;;;;3.65;1.60;;;;;;;;;;5073075;28;20047;-50
2022/06/28 12:26:40;;;;;;;11.05;5.15;;;;;;;;;;5066110;28;20374;-39
2022/06/28 12:29:06;;;;;;;4.43;1.63;;;;;;;;;;5066907;28;20029;-44
2022/06/28 12:31:31;;;;;;;9.05;3.13;;;;;;;;;;5072326;28;20081;-39
2022/06/28 12:33:56;;;;;;;6.25;1.70;;;;;;;;;;5072469;28;20082;-46
2022/06/28 12:36:22;;;;;;;5.60;1.35;;;;;;;;;;5072449;28;20384;-44
2022/06/28 12:38:47;;;;;;;7.57;1.73;;;;;;;;;;5071940;28;20043;-47
2022/06/28 12:41:13;;;;;;;5.18;1.77;;;;;;;;;;5071665;28;20052;-43
2022/06/28 12:43:38;;;;;;;9.00;1.83;;;;;;;;;;5072265;28;20036;-43
2022/06/28 12:46:03;;;;;;;6.13;2.05;;;;;;;;;;5072317;28;20473;-39
2022/06/28 12:48:32;;;;;;;9.95;2.65;;;;;;;;;;5072865;28;20043;-39
2022/06/28 12:50:58;;;;;;;5.43;2.00;;;;;;;;;;5072827;28;20067;-41
2022/06/28 12:53:23;;;;;;;6.43;1.52;;;;;;;;;;5072880;28;20067;-52
2022/06/28 12:55:48;;;;;;;5.47;2.15;;;;;;;;;;5072421;28;20032;-45
2022/06/28 12:58:14;;;;;;;4.18;1.70;;;;;;;;;;5071650;28;20036;-45
2022/06/28 13:00:40;;;;;;;6.22;2.22;;;;;;;;;;5071703;28;20032;-43
2022/06/28 13:03:06;;;;;;;4.20;1.80;;;;;;;;;;5072282;28;20028;-45
2022/06/28 13:05:31;;;;;;;5.03;1.70;;;;;;;;;;5072393;28;20021;-38
2022/06/28 13:07:57;;;;;;;12.45;2.72;;;;;;;;;;5072236;28;20072;-44
2022/06/28 13:10:23;;;;;;;6.45;2.38;;;;;;;;;;5072659;28;20024;-39
2022/06/28 13:12:49;;;;;;;8.98;2.47;;;;;;;;;;5072365;28;20063;-41
2022/06/28 13:15:15;;;;;;;8.40;2.42;;;;;;;;;;5072101;28;20028;-49
2022/06/28 13:17:41;;;;;;;6.70;2.08;;;;;;;;;;5071808;28;20033;-38
2022/06/28 13:20:07;;;;;;;4.80;1.67;;;;;;;;;;5072307;28;20032;-40
2022/06/28 13:22:33;;;;;;;6.72;2.10;;;;;;;;;;5072028;28;20166;-39
2022/06/28 13:24:58;;;;;;;5.75;1.70;;;;;;;;;;5071501;28;20091;-39
2022/06/28 13:27:24;;;;;;;6.13;1.65;;;;;;;;;;5071583;28;20045;-39
2022/06/28 13:29:49;;;;;;;4.22;1.52;;;;;;;;;;5071504;28;20032;-43
2022/06/28 13:32:14;;;;;;;4.07;1.98;;;;;;;;;;5071960;28;20073;-40
2022/06/28 13:34:40;;;;;;;9.85;1.63;;;;;;;;;;5071183;28;20028;-43
2022/06/28 13:37:06;;;;;;;3.67;1.67;;;;;;;;;;5071694;28;20155;-39
2022/06/28 13:39:32;;;;;;;4.57;1.70;;;;;;;;;;5071718;28;20032;-43
2022/06/28 13:41:57;;;;;;;3.60;2.00;;;;;;;;;;5071045;28;20446;-43
2022/06/28 13:44:23;;;;;;;4.03;1.80;;;;;;;;;;5070684;28;20162;-39
2022/06/28 13:46:48;;;;;;;4.28;1.83;;;;;;;;;;5070382;28;20024;-46
2022/06/28 13:49:15;;;;;;;4.20;1.58;;;;;;;;;;5069251;28;20494;-40
2022/06/28 13:51:40;;;;;;;5.70;1.80;;;;;;;;;;5070562;28;20027;-41
2022/06/28 13:54:06;;;;;;;6.10;2.22;;;;;;;;;;5070784;28;20020;-40
2022/06/28 13:56:32;;;;;;;4.75;1.98;;;;;;;;;;5070668;28;20384;-43
2022/06/28 13:58:57;;;;;;;5.65;2.42;;;;;;;;;;5070636;28;20036;-38
2022/06/28 14:01:22;;;;;;;4.90;1.80;;;;;;;;;;5070347;28;20078;-40
2022/06/28 14:03:48;;;;;;;6.55;2.20;;;;;;;;;;5069859;28;20032;-44
2022/06/28 14:06:13;;;;;;;5.13;2.20;;;;;;;;;;5069987;28;20032;-41
2022/06/28 14:08:40;;;;;;;3.08;2.00;;;;;;;;;;5070961;28;20086;-38
2022/06/28 14:11:06;;;;;;;3.08;1.75;;;;;;;;;;5070139;28;20053;-40
2022/06/28 14:13:33;;;;;;;4.30;1.73;;;;;;;;;;5072896;28;20433;-41
2022/06/28 14:15:58;;;;;;;3.22;1.88;;;;;;;;;;5073395;28;20044;-41
2022/06/28 14:18:24;;;;;;;7.45;1.73;;;;;;;;;;5070390;28;20031;-47
2022/06/28 14:20:49;;;;;;;8.77;2.13;;;;;;;;;;5070629;28;20032;-39
2022/06/28 14:23:15;;;;;;;5.20;2.90;;;;;;;;;;5070775;28;20031;-49
2022/06/28 14:25:41;;;;;;;2.35;1.70;;;;;;;;;;5070881;28;20031;-38
2022/06/28 14:28:08;;;;;;;5.28;1.65;;;;;;;;;;5069985;28;20175;-41
2022/06/28 14:30:33;;;;;;;4.43;1.70;;;;;;;;;;5071046;28;20044;-39
2022/06/28 14:33:00;;;;;;;7.72;2.22;;;;;;;;;;5070981;28;20067;-38
2022/06/28 14:35:26;;;;;;;5.95;2.03;;;;;;;;;;5071025;28;20017;-38
2022/06/28 14:37:51;;;;;;;5.03;1.50;;;;;;;;;;5070663;28;20083;-38
2022/06/28 14:40:16;;;;;;;9.93;1.98;;;;;;;;;;5070287;28;20039;-39
2022/06/28 14:42:42;;;;;;;3.05;1.70;;;;;;;;;;5070627;28;20484;-38
2022/06/28 14:45:08;;;;;;;8.98;1.95;;;;;;;;;;5070553;28;20028;-40
2022/06/28 14:47:38;;;;;;;4.32;2.05;;;;;;;;;;5070405;28;20643;-42
2022/06/28 14:50:08;;;;;;;4.80;2.17;;;;;;;;;;5070408;28;20047;-41
2022/06/28 14:52:35;;;;;;;5.80;1.73;;;;;;;;;;5070913;28;20055;-38
2022/06/28 14:55:00;;;;;;;5.90;2.15;;;;;;;;;;5070513;28;20075;-39